EST,Max TemperatureF,Mean TemperatureF,Min TemperatureF,Max Dew PointF,MeanDew PointF,Min DewpointF,Max Humidity, Mean Humidity, Min Humidity, Max Sea Level PressureIn, Mean Sea Level PressureIn, Min Sea Level PressureIn, Max VisibilityMiles, Mean VisibilityMiles, Min VisibilityMiles, Max Wind SpeedMPH, Mean Wind SpeedMPH, Max Gust SpeedMPH,PrecipitationIn, CloudCover, Events, WindDirDegrees
2013-11-1,66,60,51,58,49,38,86,67,37,29.70,29.47,29.31,10,8,2,25,12,39,0.71,6,Rain,230
2013-11-2,54,45,37,44,40,32,92,80,59,29.92,29.72,29.65,10,10,9,13,6,21,0.04,7,Rain,313
2013-11-3,39,32,26,30,22,16,76,63,43,30.53,30.26,29.94,10,10,10,14,10,21,0.00,5,,331
2013-11-4,41,30,19,22,17,16,89,62,36,30.70,30.64,30.58,10,10,10,10,3,,0.00,0,,115
2013-11-5,54,41,28,34,28,17,71,58,45,30.61,30.53,30.42,10,10,10,12,8,,0.00,1,,128
2013-11-6,61,52,43,49,42,34,83,67,50,30.42,30.16,29.88,10,10,8,17,9,22,0.04,3,Rain,137
2013-11-7,57,47,36,52,40,33,96,85,63,29.96,29.89,29.79,10,9,3,22,10,28,0.54,7,Rain,274
2013-11-8,37,34,28,34,31,27,96,88,65,30.21,30.03,29.92,10,7,1,22,9,29,0.32,7,Rain-Snow,289
2013-11-9,44,36,28,33,29,25,89,75,55,30.25,30.13,29.85,10,10,10,9,3,,0.00,7,Rain,116
2013-11-10,45,41,37,39,35,28,89,79,63,30.08,29.87,29.80,10,10,6,25,11,40,0.22,8,Rain,276
2013-11-11,44,38,33,36,31,26,92,76,55,30.16,30.02,29.93,10,10,3,21,12,24,0.04,7,Rain-Snow,254
2013-11-12,33,28,24,31,22,17,92,77,66,30.35,30.19,30.02,10,7,1,17,13,23,0.01,7,Snow,302
2013-11-13,34,28,23,21,18,15,78,65,52,30.42,30.32,30.15,10,10,8,12,8,,0.00,5,Snow,270
2013-11-14,46,34,21,25,20,17,85,62,34,30.15,30.11,30.07,10,10,10,16,5,25,0.00,0,Rain,80
2013-11-15,55,42,28,28,21,17,78,50,25,30.18,30.14,30.10,10,10,10,8,6,,0.00,0,,107
2013-11-16,57,44,30,34,30,23,85,60,35,30.30,30.23,30.18,10,10,10,10,3,,0.00,0,,131
2013-11-17,60,53,46,52,46,36,89,79,63,30.17,29.96,29.54,10,8,2,16,9,26,0.64,8,Rain,120
2013-11-18,62,50,37,53,37,27,87,65,46,29.82,29.62,29.43,10,10,2,29,18,46,0.19,8,Rain,267
2013-11-19,36,32,25,31,25,13,92,77,60,30.46,30.06,29.82,10,8,2,21,15,26,0.02,7,Snow,300
2013-11-20,37,28,19,17,15,13,81,61,42,30.65,30.59,30.48,10,10,10,10,3,,0.00,0,,81
2013-11-21,45,33,21,34,23,14,82,61,45,30.61,30.49,30.33,10,10,10,15,7,,0.01,3,Rain,121
2013-11-22,44,40,37,42,39,34,97,94,82,30.31,30.06,29.93,10,4,1,20,5,29,0.26,8,Rain,146
2013-11-23,37,28,19,31,22,15,89,78,42,30.12,29.99,29.90,10,5,0,28,16,38,0.02,7,Fog-Snow,282
2013-11-24,21,16,10,15,9,2,85,70,53,30.38,30.24,30.02,10,7,1,21,14,32,0.00,5,Snow,306
2013-11-25,32,20,7,18,10,1,81,65,42,30.43,30.33,30.18,10,8,2,10,6,17,0.00,5,Snow,130
2013-11-26,34,31,28,31,27,14,92,84,50,30.24,30.12,29.88,10,6,1,10,8,20,0.49,8,Rain-Snow,119
2013-11-27,36,32,26,35,30,21,100,90,75,29.78,29.59,29.51,10,4,0,26,9,33,0.86,8,Fog-Rain-Snow,282
2013-11-28,25,20,14,20,16,8,92,80,51,30.47,30.19,29.76,10,5,1,22,14,31,0.02,7,Snow,297
2013-11-29,25,16,7,18,11,3,92,79,60,30.80,30.64,30.45,10,10,4,15,4,,0.00,4,Snow,354
2013-11-30,27,15,3,17,9,0,84,70,58,30.80,30.59,30.32,10,10,10,14,6,,0.00,3,,117